Time;durP1;ratioP1;P1;durP2;ratioP2;P2;SDS_P1;SDS_P2;PMS_P1;PMS_P2;Temp;Humidity;BMP_temperature;BMP_pressure;BME280_temperature;BME280_humidity;BME280_pressure;Samples;Min_cycle;Max_cycle;Signal;HPM_P1;HPM_P2
2022/10/14 00:01:08;;;;;;;568.85;48.38;;;11.90;99.90;;;;;;5031744;28;20045;-69
2022/10/14 00:03:35;;;;;;;302.83;53.35;;;11.80;99.90;;;;;;5045453;28;20041;-69
2022/10/14 00:06:12;;;;;;;105.95;38.38;;;11.80;99.90;;;;;;5060673;28;20048;-69
2022/10/14 00:08:39;;;;;;;52.97;33.40;;;11.70;99.90;;;;;;5050626;28;20051;-69
2022/10/14 00:11:07;;;;;;;40.22;25.95;;;11.70;99.90;;;;;;5046962;28;20063;-69
2022/10/14 00:13:33;;;;;;;133.57;30.42;;;11.60;99.90;;;;;;5037930;28;20033;-69
2022/10/14 00:16:00;;;;;;;180.70;31.00;;;11.60;99.90;;;;;;5063110;28;20040;-69
2022/10/14 00:18:26;;;;;;;31.13;26.13;;;11.50;99.90;;;;;;5043188;28;20123;-69
2022/10/14 00:20:56;;;;;;;74.20;28.58;;;11.50;99.90;;;;;;5030905;28;20893;-69
2022/10/14 00:23:21;;;;;;;126.38;30.33;;;11.40;99.90;;;;;;5060004;28;20032;-69
2022/10/14 00:25:47;;;;;;;580.47;54.60;;;11.40;99.90;;;;;;5060803;28;21308;-69
2022/10/14 00:28:13;;;;;;;389.90;36.35;;;11.30;99.90;;;;;;5041958;28;20502;-69
2022/10/14 00:30:39;;;;;;;543.08;52.63;;;11.20;99.90;;;;;;5045103;28;20075;-69
2022/10/14 00:33:05;;;;;;;302.65;28.70;;;11.20;99.90;;;;;;5043028;28;20048;-69
2022/10/14 00:35:31;;;;;;;39.58;14.98;;;11.10;99.90;;;;;;5063723;28;20086;-75
2022/10/14 00:37:58;;;;;;;127.28;16.85;;;11.10;99.90;;;;;;5046857;28;20125;-75
2022/10/14 00:40:26;;;;;;;196.53;23.47;;;11.00;99.90;;;;;;5037155;28;20399;-76
2022/10/14 00:42:52;;;;;;;118.80;23.10;;;11.00;99.90;;;;;;5058899;28;20294;-75
2022/10/14 00:45:23;;;;;;;18.00;16.30;;;10.90;99.90;;;;;;5060915;28;20051;-76
2022/10/14 00:47:50;;;;;;;21.00;18.80;;;11.00;99.90;;;;;;5031461;28;20137;-75
2022/10/14 00:50:16;;;;;;;21.92;19.70;;;11.00;99.90;;;;;;5056308;28;20029;-75
2022/10/14 00:52:43;;;;;;;23.05;20.70;;;10.90;99.90;;;;;;5042645;28;20170;-76
2022/10/14 00:55:16;;;;;;;37.80;25.17;;;11.00;99.90;;;;;;5060943;28;20036;-75
2022/10/14 00:57:42;;;;;;;32.00;25.98;;;11.10;99.90;;;;;;5059658;28;20044;-75
2022/10/14 01:00:14;;;;;;;30.60;27.00;;;11.10;99.90;;;;;;5046458;28;20045;-76
2022/10/14 01:02:41;;;;;;;31.80;27.67;;;11.10;99.90;;;;;;5067457;28;20084;-75
2022/10/14 01:05:09;;;;;;;204.10;36.10;;;11.20;99.90;;;;;;5060966;28;20060;-75
2022/10/14 01:07:50;;;;;;;64.82;28.85;;;11.20;99.90;;;;;;5061275;28;20080;-75
2022/10/14 01:10:26;;;;;;;70.18;30.42;;;11.30;99.90;;;;;;5062257;28;20056;-75
2022/10/14 01:13:10;;;;;;;61.28;28.50;;;11.30;99.90;;;;;;5058887;28;20055;-75
2022/10/14 01:15:48;;;;;;;309.00;47.53;;;11.30;99.90;;;;;;5063759;28;20787;-75
2022/10/14 01:18:23;;;;;;;139.43;33.17;;;11.30;99.90;;;;;;5063228;28;20090;-75
2022/10/14 01:21:03;;;;;;;56.53;27.52;;;11.30;99.90;;;;;;5058326;28;20044;-75
2022/10/14 01:24:07;;;;;;;56.30;27.80;;;11.30;99.90;;;;;;5046419;28;20041;-75
2022/10/14 01:27:06;;;;;;;74.57;27.00;;;11.30;99.90;;;;;;5059197;28;20464;-75
2022/10/14 01:30:14;;;;;;;64.57;27.17;;;11.30;99.90;;;;;;5063340;28;20091;-75
2022/10/14 01:32:54;;;;;;;92.63;31.08;;;11.30;99.90;;;;;;5052575;28;20506;-75
2022/10/14 01:35:23;;;;;;;54.20;28.25;;;11.30;99.90;;;;;;5046902;28;20048;-76
2022/10/14 01:37:57;;;;;;;302.23;51.25;;;11.30;99.90;;;;;;5045949;28;20578;-75
2022/10/14 01:40:46;;;;;;;38.28;26.67;;;11.30;99.90;;;;;;5048149;28;20047;-75
2022/10/14 01:43:13;;;;;;;30.90;26.13;;;11.30;99.90;;;;;;5018001;28;20055;-75
2022/10/14 01:45:42;;;;;;;33.13;25.90;;;11.30;99.90;;;;;;5062899;28;20048;-76
2022/10/14 01:48:10;;;;;;;45.20;27.25;;;11.30;99.90;;;;;;5042683;28;20044;-75
2022/10/14 01:50:38;;;;;;;39.78;27.85;;;11.30;99.90;;;;;;5039623;28;20120;-75
2022/10/14 01:53:09;;;;;;;49.20;30.95;;;11.20;99.90;;;;;;5059923;28;20041;-69
2022/10/14 01:55:40;;;;;;;296.85;53.00;;;11.20;99.90;;;;;;5063107;28;20056;-69
2022/10/14 01:58:07;;;;;;;45.80;27.88;;;11.20;99.90;;;;;;5048530;28;20044;-69
2022/10/14 02:00:33;;;;;;;66.57;29.83;;;11.20;99.90;;;;;;5048937;28;20047;-69
2022/10/14 02:02:59;;;;;;;85.63;30.17;;;11.20;99.90;;;;;;5015599;28;20041;-69
2022/10/14 02:05:31;;;;;;;102.40;34.60;;;11.20;99.90;;;;;;5042383;28;20456;-69
2022/10/14 02:08:23;;;;;;;86.88;30.90;;;11.20;99.90;;;;;;5061152;28;20405;-69
2022/10/14 02:10:57;;;;;;;36.33;26.10;;;11.20;99.90;;;;;;5028324;28;20045;-69
2022/10/14 02:13:35;;;;;;;83.38;29.63;;;11.20;99.90;;;;;;5060986;28;20045;-69
2022/10/14 02:16:07;;;;;;;46.80;25.15;;;11.20;99.90;;;;;;5053905;28;20048;-70
2022/10/14 02:18:45;;;;;;;98.28;27.77;;;11.20;99.90;;;;;;5045394;28;20041;-70
2022/10/14 02:21:22;;;;;;;100.20;28.55;;;11.20;99.90;;;;;;5051769;28;20067;-69
2022/10/14 02:24:15;;;;;;;115.50;28.50;;;11.10;99.90;;;;;;5046376;28;20052;-69
2022/10/14 02:26:42;;;;;;;59.97;23.35;;;11.10;99.90;;;;;;5042951;28;20063;-69
2022/10/14 02:29:11;;;;;;;199.05;35.28;;;11.10;99.90;;;;;;5046847;28;20060;-69
2022/10/14 02:31:39;;;;;;;42.90;21.65;;;11.00;99.90;;;;;;5036836;28;20387;-70
2022/10/14 02:34:10;;;;;;;54.17;22.30;;;11.00;99.90;;;;;;5062654;28;20078;-69
2022/10/14 02:36:37;;;;;;;51.78;21.50;;;11.00;99.90;;;;;;5045469;28;20538;-69
2022/10/14 02:39:06;;;;;;;46.25;21.00;;;11.00;99.90;;;;;;5062116;28;20047;-69
2022/10/14 02:41:35;;;;;;;70.13;21.75;;;11.00;99.90;;;;;;5056695;28;20442;-69
2022/10/14 02:44:04;;;;;;;49.55;18.98;;;11.00;99.90;;;;;;5058964;28;20499;-69
2022/10/14 02:46:31;;;;;;;63.35;18.95;;;11.00;99.90;;;;;;5078088;28;20068;-69
2022/10/14 02:48:57;;;;;;;113.40;21.83;;;11.00;99.90;;;;;;5057755;28;20074;-69
2022/10/14 02:51:23;;;;;;;90.25;20.65;;;11.00;99.90;;;;;;5052588;28;20033;-69
2022/10/14 02:53:49;;;;;;;98.90;23.50;;;11.00;99.90;;;;;;5058576;28;20052;-69
2022/10/14 02:56:16;;;;;;;54.63;18.70;;;10.90;99.90;;;;;;5043064;28;20048;-69
2022/10/14 02:58:41;;;;;;;81.50;19.27;;;10.90;99.90;;;;;;5041138;28;20064;-69
2022/10/14 03:01:07;;;;;;;70.15;21.80;;;10.90;99.90;;;;;;5056083;28;20076;-69
2022/10/14 03:03:33;;;;;;;58.15;19.15;;;10.90;99.90;;;;;;5061696;28;20037;-69
2022/10/14 03:05:59;;;;;;;61.90;19.65;;;10.90;99.90;;;;;;5058773;28;20703;-69
2022/10/14 03:08:25;;;;;;;165.48;26.40;;;10.90;99.90;;;;;;5057317;28;20052;-75
2022/10/14 03:10:51;;;;;;;106.63;22.27;;;10.90;99.90;;;;;;5060078;28;20044;-76
2022/10/14 03:13:17;;;;;;;52.67;20.08;;;10.90;99.90;;;;;;5028167;28;20123;-75
2022/10/14 03:15:42;;;;;;;79.55;16.92;;;10.90;99.90;;;;;;5039834;28;20206;-76
2022/10/14 03:18:08;;;;;;;79.55;16.90;;;10.90;99.90;;;;;;5029166;28;20102;-76
2022/10/14 03:20:34;;;;;;;128.80;18.15;;;10.90;99.90;;;;;;5045515;28;20040;-76
2022/10/14 03:22:59;;;;;;;46.05;16.88;;;10.80;99.90;;;;;;5026878;28;20051;-75
2022/10/14 03:25:26;;;;;;;86.25;16.30;;;10.90;99.90;;;;;;5058580;28;20040;-75
2022/10/14 03:27:52;;;;;;;94.18;17.02;;;10.80;99.90;;;;;;5042938;28;20048;-76
2022/10/14 03:30:18;;;;;;;113.40;19.63;;;10.80;99.90;;;;;;5041188;28;20056;-75
2022/10/14 03:32:44;;;;;;;140.27;21.50;;;10.80;99.90;;;;;;5026082;28;20052;-76
2022/10/14 03:35:09;;;;;;;117.30;20.17;;;10.80;99.90;;;;;;5044663;28;20044;-75
2022/10/14 03:37:35;;;;;;;88.55;18.73;;;10.80;99.90;;;;;;5044154;28;20048;-75
2022/10/14 03:40:01;;;;;;;100.07;21.27;;;10.80;99.90;;;;;;5046336;28;20071;-75
2022/10/14 03:42:26;;;;;;;123.82;22.95;;;10.90;99.90;;;;;;5056447;28;20053;-76
2022/10/14 03:44:52;;;;;;;143.73;25.80;;;10.80;99.90;;;;;;5045444;28;20805;-76
2022/10/14 03:47:18;;;;;;;126.20;26.40;;;10.90;99.90;;;;;;5057737;28;20542;-69
2022/10/14 03:49:44;;;;;;;81.03;23.70;;;10.90;99.90;;;;;;5061219;28;20380;-69
2022/10/14 03:52:09;;;;;;;134.10;26.63;;;10.90;99.90;;;;;;5062917;28;20053;-69
2022/10/14 03:54:35;;;;;;;123.55;26.80;;;10.90;99.90;;;;;;5026934;28;20037;-69
2022/10/14 03:57:01;;;;;;;205.68;35.75;;;11.00;99.90;;;;;;5042454;28;20474;-70
2022/10/14 03:59:27;;;;;;;166.07;33.75;;;11.00;99.90;;;;;;5059701;28;20044;-69
2022/10/14 04:01:52;;;;;;;133.90;34.00;;;11.00;99.90;;;;;;5037810;28;20065;-69
2022/10/14 04:04:18;;;;;;;153.23;34.53;;;11.00;99.90;;;;;;5060804;28;20254;-69
2022/10/14 04:06:44;;;;;;;155.55;34.70;;;11.00;99.90;;;;;;5040594;28;20062;-69
2022/10/14 04:09:10;;;;;;;202.82;39.35;;;11.00;99.90;;;;;;5040450;28;20073;-70
2022/10/14 04:11:36;;;;;;;100.68;31.75;;;11.00;99.90;;;;;;5057060;28;20048;-69
2022/10/14 04:14:02;;;;;;;141.02;35.08;;;11.10;99.90;;;;;;5058612;28;20748;-69
2022/10/14 04:16:30;;;;;;;141.07;36.28;;;11.00;99.90;;;;;;5060886;28;20542;-69
2022/10/14 04:18:57;;;;;;;95.90;33.42;;;11.00;99.90;;;;;;5032136;28;20052;-70
2022/10/14 04:21:23;;;;;;;94.50;33.53;;;11.00;99.90;;;;;;5060856;28;20114;-69
2022/10/14 04:23:49;;;;;;;113.97;34.45;;;11.00;99.90;;;;;;5047361;28;20080;-70
2022/10/14 04:26:16;;;;;;;89.35;32.50;;;11.00;99.90;;;;;;5063670;28;20056;-69
2022/10/14 04:28:42;;;;;;;195.10;38.80;;;11.00;99.90;;;;;;5063729;28;20045;-69
2022/10/14 04:31:08;;;;;;;128.40;34.80;;;11.00;99.90;;;;;;5065941;28;20487;-69
2022/10/14 04:33:34;;;;;;;112.25;31.90;;;11.00;99.90;;;;;;5064519;28;20039;-69
2022/10/14 04:36:03;;;;;;;146.20;36.17;;;11.00;99.90;;;;;;5059822;28;20383;-70
2022/10/14 04:38:32;;;;;;;85.38;31.50;;;10.90;99.90;;;;;;5062486;28;20086;-69
2022/10/14 04:40:58;;;;;;;75.38;30.38;;;10.90;99.90;;;;;;5047284;28;20040;-69
2022/10/14 04:43:24;;;;;;;115.80;32.75;;;10.90;99.90;;;;;;5061756;28;20041;-69
2022/10/14 04:45:50;;;;;;;119.30;34.58;;;10.90;99.90;;;;;;5065321;28;20041;-69
2022/10/14 04:48:17;;;;;;;96.43;33.33;;;10.90;99.90;;;;;;5028356;28;20048;-69
2022/10/14 04:50:43;;;;;;;131.80;36.58;;;11.00;99.90;;;;;;5065028;28;20037;-69
2022/10/14 04:53:09;;;;;;;111.25;34.70;;;10.90;99.90;;;;;;5060815;28;20059;-69
2022/10/14 04:55:35;;;;;;;120.75;36.50;;;11.00;99.90;;;;;;5047952;28;20122;-69
2022/10/14 04:58:02;;;;;;;106.85;34.80;;;10.90;99.90;;;;;;5062056;28;20056;-69
2022/10/14 05:00:30;;;;;;;102.32;34.08;;;11.00;99.90;;;;;;5057884;28;20033;-69
2022/10/14 05:02:56;;;;;;;146.82;36.10;;;11.00;99.90;;;;;;5047681;28;20131;-69
2022/10/14 05:05:22;;;;;;;194.23;38.53;;;11.00;99.90;;;;;;5044245;28;20573;-70
2022/10/14 05:07:47;;;;;;;154.25;39.45;;;11.00;99.90;;;;;;5061802;28;20040;-69
2022/10/14 05:10:13;;;;;;;89.85;35.13;;;11.00;99.90;;;;;;5061905;28;20055;-69
2022/10/14 05:12:39;;;;;;;143.15;38.05;;;11.00;99.90;;;;;;5041461;28;20041;-69
2022/10/14 05:15:05;;;;;;;215.13;41.97;;;11.00;99.90;;;;;;5046497;28;20052;-75
2022/10/14 05:17:32;;;;;;;169.35;41.08;;;11.00;99.90;;;;;;5044192;28;20033;-75
2022/10/14 05:19:57;;;;;;;178.05;38.83;;;11.00;99.90;;;;;;5063182;28;20060;-75
2022/10/14 05:22:24;;;;;;;207.75;42.70;;;11.10;99.90;;;;;;5044928;28;20048;-75
2022/10/14 05:24:50;;;;;;;161.70;41.15;;;11.10;99.90;;;;;;5062592;28;20036;-76
2022/10/14 05:27:16;;;;;;;190.95;41.03;;;11.10;99.90;;;;;;5046532;28;20048;-76
2022/10/14 05:29:42;;;;;;;214.90;43.65;;;11.00;99.90;;;;;;5059502;28;20040;-76
2022/10/14 05:32:08;;;;;;;432.48;51.78;;;11.10;99.90;;;;;;5042652;28;20509;-76
2022/10/14 05:34:34;;;;;;;166.70;39.30;;;11.10;99.90;;;;;;5062450;28;20403;-76
2022/10/14 05:37:01;;;;;;;186.45;40.25;;;11.10;99.90;;;;;;5037297;28;20054;-76
2022/10/14 05:39:26;;;;;;;173.10;38.42;;;11.10;99.90;;;;;;5063354;28;20491;-76
2022/10/14 05:41:52;;;;;;;158.38;39.00;;;11.10;99.90;;;;;;5056706;28;20042;-77
2022/10/14 05:44:18;;;;;;;133.93;35.13;;;11.10;99.90;;;;;;5039508;28;20343;-76
2022/10/14 05:46:44;;;;;;;200.88;39.47;;;11.10;99.90;;;;;;5057569;28;20059;-76
2022/10/14 05:49:10;;;;;;;179.80;39.28;;;11.10;99.90;;;;;;5041449;28;20048;-76
2022/10/14 05:51:36;;;;;;;148.35;37.85;;;11.10;99.90;;;;;;5062004;28;20045;-76
2022/10/14 05:54:03;;;;;;;134.15;36.67;;;11.10;99.90;;;;;;5058689;28;20072;-75
2022/10/14 05:56:31;;;;;;;159.32;36.72;;;11.10;99.90;;;;;;5059330;28;20079;-75
2022/10/14 05:58:57;;;;;;;194.93;41.38;;;11.10;99.90;;;;;;5050864;28;20045;-75
2022/10/14 06:01:23;;;;;;;171.88;40.05;;;11.10;99.90;;;;;;5058300;28;20045;-74
2022/10/14 06:03:50;;;;;;;151.52;39.10;;;11.10;99.90;;;;;;5062354;28;20056;-74
2022/10/14 06:06:16;;;;;;;104.90;34.08;;;11.10;99.90;;;;;;5056733;28;20052;-74
2022/10/14 06:08:43;;;;;;;369.20;50.30;;;11.10;99.90;;;;;;5046453;28;20032;-74
2022/10/14 06:11:10;;;;;;;130.32;38.72;;;11.10;99.90;;;;;;5044296;28;20032;-75
2022/10/14 06:13:37;;;;;;;128.63;36.28;;;11.10;99.90;;;;;;5057481;28;20032;-74
2022/10/14 06:16:07;;;;;;;154.95;41.65;;;11.10;99.90;;;;;;5028086;28;20044;-75
2022/10/14 06:18:34;;;;;;;147.77;43.65;;;11.10;99.90;;;;;;5061027;28;20106;-74
2022/10/14 06:21:00;;;;;;;126.57;42.83;;;11.10;99.90;;;;;;5042392;28;20124;-74
2022/10/14 06:23:26;;;;;;;151.77;45.25;;;11.10;99.90;;;;;;5031545;28;20041;-74
2022/10/14 06:25:52;;;;;;;119.97;42.17;;;11.10;99.90;;;;;;5044712;28;20446;-74
2022/10/14 06:28:18;;;;;;;354.70;61.95;;;11.10;99.90;;;;;;5045946;28;20048;-74
2022/10/14 06:30:51;;;;;;;121.53;43.78;;;11.10;99.90;;;;;;5044867;28;20453;-74
2022/10/14 06:33:18;;;;;;;126.18;45.72;;;11.10;99.90;;;;;;5028353;28;20072;-74
2022/10/14 06:35:43;;;;;;;120.43;45.35;;;11.10;99.90;;;;;;5056323;28;20044;-74
2022/10/14 06:38:09;;;;;;;133.85;45.95;;;11.10;99.90;;;;;;5041190;28;20040;-75
2022/10/14 06:40:35;;;;;;;219.15;52.45;;;11.10;99.90;;;;;;5054429;28;20050;-74
2022/10/14 06:43:01;;;;;;;313.65;64.75;;;11.10;99.90;;;;;;5044288;28;20491;-75
2022/10/14 06:45:27;;;;;;;224.93;55.65;;;11.10;99.90;;;;;;5028802;28;20102;-74
2022/10/14 06:47:53;;;;;;;190.25;54.33;;;11.10;99.90;;;;;;5046820;28;20388;-74
2022/10/14 06:50:19;;;;;;;192.95;56.92;;;11.10;99.90;;;;;;5031602;28;20804;-74
2022/10/14 06:52:45;;;;;;;170.32;54.97;;;11.20;99.90;;;;;;5041142;28;20047;-74
2022/10/14 06:55:11;;;;;;;137.80;52.40;;;11.10;99.90;;;;;;5042440;28;20052;-74
2022/10/14 06:57:37;;;;;;;144.38;52.85;;;11.20;99.90;;;;;;5060829;28;20087;-74
2022/10/14 07:00:04;;;;;;;145.02;53.40;;;11.20;99.90;;;;;;5039820;28;20068;-74
2022/10/14 07:02:30;;;;;;;274.33;62.60;;;11.20;99.90;;;;;;5046890;28;20052;-75
2022/10/14 07:04:56;;;;;;;156.02;54.08;;;11.30;99.90;;;;;;5060743;28;20098;-74
2022/10/14 07:07:22;;;;;;;127.30;48.47;;;11.30;99.90;;;;;;5026279;28;20052;-74
2022/10/14 07:09:48;;;;;;;107.30;46.90;;;11.30;99.90;;;;;;5054258;28;20040;-75
2022/10/14 07:12:14;;;;;;;97.30;42.30;;;11.30;99.90;;;;;;5043849;28;20052;-74
2022/10/14 07:14:40;;;;;;;114.72;45.95;;;11.40;99.90;;;;;;5038279;28;20102;-74
2022/10/14 07:17:08;;;;;;;98.47;43.92;;;11.40;99.90;;;;;;5058337;28;20075;-74
2022/10/14 07:19:34;;;;;;;108.75;44.90;;;11.40;99.90;;;;;;5043461;28;20054;-75
2022/10/14 07:22:00;;;;;;;87.65;40.92;;;11.40;99.90;;;;;;5041255;28;20069;-75
2022/10/14 07:24:26;;;;;;;76.85;40.60;;;11.40;99.90;;;;;;5035893;28;20368;-74
2022/10/14 07:26:52;;;;;;;80.43;41.03;;;11.40;99.90;;;;;;5041024;28;20133;-74
2022/10/14 07:29:18;;;;;;;82.18;41.63;;;11.50;99.90;;;;;;5055539;28;20057;-74
2022/10/14 07:31:44;;;;;;;199.18;47.70;;;11.50;99.90;;;;;;5057153;28;20040;-74
2022/10/14 07:34:09;;;;;;;69.95;38.75;;;11.50;99.90;;;;;;5038948;28;20072;-74
2022/10/14 07:36:35;;;;;;;83.75;41.50;;;11.50;99.90;;;;;;5057872;28;20491;-74
2022/10/14 07:39:02;;;;;;;87.72;42.22;;;11.60;99.90;;;;;;5037724;28;20272;-73
2022/10/14 07:41:28;;;;;;;68.53;38.17;;;11.60;99.90;;;;;;5041665;28;20510;-73
2022/10/14 07:44:04;;;;;;;68.63;37.17;;;11.60;99.90;;;;;;5055241;28;20331;-74
2022/10/14 07:46:31;;;;;;;60.47;34.03;;;11.70;99.90;;;;;;5075328;28;20115;-74
2022/10/14 07:49:06;;;;;;;83.75;39.75;;;11.70;99.90;;;;;;5049450;28;20517;-73
2022/10/14 07:51:32;;;;;;;71.78;37.08;;;11.70;99.90;;;;;;5046287;28;20048;-74
2022/10/14 07:54:00;;;;;;;65.32;35.53;;;11.70;99.90;;;;;;5023081;28;20044;-74
2022/10/14 07:56:26;;;;;;;72.93;37.15;;;11.80;99.90;;;;;;5056971;28;20037;-73
2022/10/14 07:58:53;;;;;;;62.10;34.47;;;11.80;99.90;;;;;;5020279;28;20483;-74
2022/10/14 08:01:19;;;;;;;81.60;39.63;;;11.80;99.90;;;;;;5069670;28;20317;-74
2022/10/14 08:03:47;;;;;;;71.13;37.95;;;11.80;99.90;;;;;;5051901;28;20055;-74
2022/10/14 08:06:13;;;;;;;72.05;39.17;;;11.90;99.90;;;;;;5051325;28;20048;-74
2022/10/14 08:08:39;;;;;;;77.85;40.17;;;11.90;99.90;;;;;;5053153;28;20091;-73
2022/10/14 08:11:07;;;;;;;63.92;38.88;;;11.90;99.90;;;;;;5056549;28;20044;-73
2022/10/14 08:13:34;;;;;;;81.65;42.30;;;11.90;99.90;;;;;;5038168;28;20048;-74
2022/10/14 08:16:00;;;;;;;66.65;38.03;;;12.00;99.90;;;;;;5052295;28;20036;-74
2022/10/14 08:18:26;;;;;;;59.53;36.08;;;12.00;99.90;;;;;;5028019;28;20676;-73
2022/10/14 08:20:52;;;;;;;59.53;36.28;;;12.10;99.90;;;;;;5057433;28;20236;-73
2022/10/14 08:23:18;;;;;;;73.50;40.28;;;12.10;99.90;;;;;;5036023;28;20494;-73
2022/10/14 08:25:45;;;;;;;64.45;38.28;;;12.10;99.90;;;;;;5050845;28;20052;-73
2022/10/14 08:28:11;;;;;;;63.30;38.13;;;12.10;99.90;;;;;;5044472;28;20044;-74
2022/10/14 08:30:37;;;;;;;61.58;38.13;;;12.10;99.90;;;;;;5035867;28;20059;-73
2022/10/14 08:33:03;;;;;;;95.50;43.08;;;12.10;99.90;;;;;;5052265;28;20130;-74
2022/10/14 08:35:29;;;;;;;68.15;40.03;;;12.10;99.90;;;;;;5035851;28;20037;-73
2022/10/14 08:37:57;;;;;;;65.00;39.20;;;12.20;99.90;;;;;;5043385;28;20033;-74
2022/10/14 08:40:23;;;;;;;69.10;39.25;;;12.20;99.90;;;;;;5041052;28;20124;-75
2022/10/14 08:42:54;;;;;;;68.25;39.92;;;12.20;99.90;;;;;;5052708;28;20146;-73
2022/10/14 08:45:36;;;;;;;77.25;40.95;;;12.20;99.90;;;;;;5065504;28;20040;-73
2022/10/14 08:48:09;;;;;;;84.10;41.33;;;12.20;99.90;;;;;;5038493;28;20045;-74
2022/10/14 08:50:50;;;;;;;82.95;41.75;;;12.20;99.90;;;;;;5041131;28;20051;-73
2022/10/14 08:53:17;;;;;;;;;;;12.20;99.90;;;;;;5040544;28;20044;-74
2022/10/14 08:55:53;;;;;;;73.15;41.30;;;12.20;99.90;;;;;;5042226;28;20267;-73
2022/10/14 08:58:30;;;;;;;79.75;44.13;;;12.30;99.90;;;;;;5051693;28;20117;-73
2022/10/14 09:01:17;;;;;;;85.15;42.58;;;12.30;99.90;;;;;;5054809;28;20048;-73
2022/10/14 09:03:43;;;;;;;71.32;39.67;;;12.30;99.90;;;;;;5043762;28;20049;-73
2022/10/14 09:06:26;;;;;;;72.32;41.70;;;12.40;99.90;;;;;;5041793;28;20071;-74
2022/10/14 09:08:57;;;;;;;76.03;42.47;;;12.40;99.90;;;;;;5038613;28;20044;-74
2022/10/14 09:11:23;;;;;;;;;;;12.40;99.90;;;;;;5058676;28;20531;-74
2022/10/14 09:13:56;;;;;;;69.78;40.92;;;12.40;99.90;;;;;;5045688;28;19931;-73
2022/10/14 09:16:29;;;;;;;96.97;46.88;;;12.40;99.90;;;;;;5046873;28;20034;-74
2022/10/14 09:19:25;;;;;;;93.45;45.85;;;12.50;99.90;;;;;;5061132;28;20056;-74
2022/10/14 09:21:53;;;;;;;108.05;48.28;;;12.50;99.90;;;;;;5075669;28;20054;-74
2022/10/14 09:24:34;;;;;;;71.15;39.65;;;12.60;99.90;;;;;;5062478;28;20049;-74
2022/10/14 09:27:22;;;;;;;115.90;48.20;;;12.60;99.90;;;;;;5027540;28;20041;-74
2022/10/14 09:30:01;;;;;;;135.45;48.75;;;12.60;99.90;;;;;;5048605;28;20138;-74
2022/10/14 09:32:39;;;;;;;101.15;46.50;;;12.60;99.90;;;;;;5040865;28;20049;-75
2022/10/14 09:35:28;;;;;;;70.38;39.08;;;12.70;99.90;;;;;;5052986;28;20509;-75
2022/10/14 09:37:54;;;;;;;69.57;38.88;;;12.70;99.90;;;;;;5047979;28;20060;-74
2022/10/14 09:40:28;;;;;;;97.18;44.58;;;12.70;99.90;;;;;;5051888;28;20495;-74
2022/10/14 09:43:00;;;;;;;81.50;42.13;;;12.70;99.90;;;;;;5036898;28;20068;-74
2022/10/14 09:45:28;;;;;;;69.53;38.55;;;12.70;99.90;;;;;;5074025;28;20675;-75
2022/10/14 09:48:06;;;;;;;88.72;41.53;;;12.70;99.90;;;;;;5018284;28;20045;-75
2022/10/14 09:50:42;;;;;;;81.03;39.35;;;12.70;99.90;;;;;;5037734;28;20083;-75
2022/10/14 09:53:26;;;;;;;85.80;41.53;;;12.70;99.90;;;;;;5050844;28;20506;-74
2022/10/14 09:56:01;;;;;;;81.78;39.70;;;12.70;99.90;;;;;;5034553;28;20075;-74
2022/10/14 09:58:45;;;;;;;76.78;38.17;;;12.70;99.90;;;;;;5041888;28;20040;-75
2022/10/14 10:01:19;;;;;;;79.18;38.80;;;12.70;99.90;;;;;;5050001;28;20151;-74
2022/10/14 10:03:46;;;;;;;83.30;38.67;;;12.70;99.90;;;;;;5076279;28;20086;-75
2022/10/14 10:06:15;;;;;;;82.60;38.42;;;12.70;99.90;;;;;;5024938;28;20099;-74
2022/10/14 10:08:53;;;;;;;77.57;37.47;;;12.70;99.90;;;;;;5034552;28;20064;-74
2022/10/14 10:11:46;;;;;;;72.93;37.83;;;12.70;99.90;;;;;;5041164;28;20415;-75
2022/10/14 10:14:20;;;;;;;80.07;37.40;;;12.70;99.90;;;;;;5051455;28;20099;-74
2022/10/14 10:16:47;;;;;;;88.60;39.40;;;12.70;99.90;;;;;;5067161;28;20090;-74
2022/10/14 10:19:25;;;;;;;79.00;37.85;;;12.70;99.90;;;;;;5037595;28;20041;-75
2022/10/14 10:21:51;;;;;;;85.18;39.65;;;12.80;99.90;;;;;;5048227;28;20088;-74
2022/10/14 10:24:20;;;;;;;90.18;40.72;;;12.80;99.90;;;;;;5043702;28;20088;-74
2022/10/14 10:26:47;;;;;;;97.65;40.42;;;12.80;99.90;;;;;;5040563;28;20041;-74
2022/10/14 10:29:34;;;;;;;95.47;39.53;;;12.80;99.90;;;;;;5054322;28;20053;-74
2022/10/14 10:32:10;;;;;;;95.38;40.08;;;12.80;99.90;;;;;;5014121;28;20041;-74
2022/10/14 10:34:52;;;;;;;77.75;35.70;;;12.80;99.90;;;;;;5035451;28;20660;-74
2022/10/14 10:37:36;;;;;;;75.30;34.45;;;12.90;99.90;;;;;;5034023;28;20049;-75
2022/10/14 10:40:41;;;;;;;74.85;32.88;;;12.90;99.90;;;;;;5035367;28;20102;-74
2022/10/14 10:43:31;;;;;;;76.32;34.00;;;12.80;99.90;;;;;;5021145;28;20105;-75
2022/10/14 10:46:00;;;;;;;79.28;33.90;;;12.90;99.90;;;;;;5049910;28;20051;-74
2022/10/14 10:48:35;;;;;;;69.25;31.35;;;12.90;99.90;;;;;;5036574;28;20457;-75
2022/10/14 10:51:36;;;;;;;63.60;30.55;;;13.00;99.90;;;;;;5048428;28;20056;-74
2022/10/14 10:54:06;;;;;;;58.25;28.83;;;13.00;99.90;;;;;;5045279;28;20067;-74
2022/10/14 10:56:51;;;;;;;62.38;28.90;;;13.00;99.90;;;;;;5046976;28;20171;-74
2022/10/14 10:59:50;;;;;;;61.15;30.30;;;13.00;99.90;;;;;;5046023;28;20110;-74
2022/10/14 11:02:43;;;;;;;58.10;28.80;;;13.00;99.90;;;;;;5034762;28;20476;-75
2022/10/14 11:05:38;;;;;;;50.75;25.38;;;13.00;99.90;;;;;;5051999;28;20463;-74
2022/10/14 11:14:56;;;;;;;45.60;25.00;;;13.10;99.90;;;;;;5050218;28;20459;-74
2022/10/14 11:17:41;;;;;;;58.80;27.30;;;13.10;99.90;;;;;;5059190;28;20411;-74
2022/10/14 11:20:42;;;;;;;50.50;25.40;;;13.10;99.90;;;;;;5048781;28;20476;-74
2022/10/14 11:23:20;;;;;;;;;;;13.10;99.90;;;;;;5049596;28;20037;-74
2022/10/14 11:25:50;;;;;;;48.67;24.83;;;13.10;99.90;;;;;;5025960;28;20330;-74
2022/10/14 11:28:31;;;;;;;45.03;24.63;;;13.10;99.90;;;;;;5046653;28;20063;-74
2022/10/14 11:31:05;;;;;;;45.55;24.02;;;13.10;99.90;;;;;;5043475;28;20051;-74
2022/10/14 11:33:58;;;;;;;52.60;25.65;;;13.20;99.90;;;;;;5051185;28;20156;-74
2022/10/14 11:37:02;;;;;;;48.42;26.05;;;13.20;99.90;;;;;;5055510;28;20436;-74
2022/10/14 11:39:46;;;;;;;43.10;24.98;;;13.30;99.90;;;;;;5011565;28;20056;-74
2022/10/14 11:42:30;;;;;;;52.28;27.50;;;13.20;99.90;;;;;;5058776;28;20087;-74
2022/10/14 11:45:07;;;;;;;54.15;28.50;;;13.30;99.90;;;;;;5050580;28;20411;-74
2022/10/14 11:47:36;;;;;;;57.17;28.90;;;13.30;99.90;;;;;;5035484;28;20395;-74
2022/10/14 11:50:10;;;;;;;58.63;31.15;;;13.30;99.90;;;;;;5052925;28;20041;-74
2022/10/14 11:52:45;;;;;;;124.65;39.20;;;13.30;99.90;;;;;;5045845;28;20048;-74
2022/10/14 11:55:17;;;;;;;82.40;34.65;;;13.40;99.90;;;;;;5046427;28;20105;-75
2022/10/14 11:57:54;;;;;;;68.25;35.00;;;13.40;99.90;;;;;;5049701;28;20055;-74
2022/10/14 12:00:22;;;;;;;80.18;37.25;;;13.40;99.90;;;;;;5048106;28;20114;-75
2022/10/14 12:03:18;;;;;;;81.35;39.65;;;13.40;99.90;;;;;;5050952;28;20044;-74
2022/10/14 12:06:15;;;;;;;79.30;39.50;;;13.50;99.90;;;;;;5032674;28;20096;-75
2022/10/14 12:09:02;;;;;;;119.10;45.20;;;13.50;99.90;;;;;;5027565;28;20049;-74
2022/10/14 12:11:48;;;;;;;110.30;46.17;;;13.50;99.90;;;;;;5042255;28;20409;-74
2022/10/14 12:14:38;;;;;;;90.68;46.05;;;13.60;99.90;;;;;;5058972;28;20089;-74
2022/10/14 12:17:27;;;;;;;92.22;45.25;;;13.60;99.90;;;;;;5068142;28;20044;-74
2022/10/14 12:19:55;;;;;;;93.07;45.00;;;13.60;99.90;;;;;;5072861;28;20491;-74
2022/10/14 12:22:24;;;;;;;103.03;48.42;;;13.60;99.90;;;;;;5073182;28;20049;-74
2022/10/14 12:24:53;;;;;;;129.60;50.40;;;13.60;99.90;;;;;;5042983;28;20048;-74
2022/10/14 12:27:22;;;;;;;112.20;51.60;;;13.70;99.90;;;;;;5048703;28;20434;-74
2022/10/14 12:29:49;;;;;;;91.55;45.95;;;13.70;99.90;;;;;;5039199;28;20045;-74
2022/10/14 12:32:15;;;;;;;93.85;48.20;;;13.70;99.90;;;;;;5054434;28;20047;-74
2022/10/14 12:34:46;;;;;;;96.30;47.95;;;13.70;99.90;;;;;;5039126;28;20048;-74
2022/10/14 12:37:33;;;;;;;173.95;60.45;;;13.80;99.90;;;;;;5054511;28;20087;-74
2022/10/14 12:40:05;;;;;;;124.22;52.00;;;13.80;99.90;;;;;;5058500;28;20519;-74
2022/10/14 12:42:50;;;;;;;111.47;50.58;;;13.90;99.90;;;;;;5062608;28;20056;-74
2022/10/14 12:45:20;;;;;;;132.95;54.38;;;13.90;99.90;;;;;;5080011;28;20446;-74
2022/10/14 12:47:59;;;;;;;104.40;49.88;;;13.90;99.90;;;;;;5055938;28;20045;-73
2022/10/14 12:50:29;;;;;;;104.25;49.95;;;13.90;99.90;;;;;;5060150;28;20040;-74